sensor_id;sensor_type;location;lat;lon;timestamp;temperature;humidity
28460;DHT22;32528;45.712;9.192;2023-06-05T00:00:30;17.90;99.90
28460;DHT22;32528;45.712;9.192;2023-06-05T00:02:30;17.90;99.90
28460;DHT22;32528;45.712;9.192;2023-06-05T00:04:31;17.90;99.90
28460;DHT22;32528;45.712;9.192;2023-06-05T00:06:32;17.90;99.90
28460;DHT22;32528;45.712;9.192;2023-06-05T00:08:33;17.90;99.90
28460;DHT22;32528;45.712;9.192;2023-06-05T00:10:34;17.90;99.90
28460;DHT22;32528;45.712;9.192;2023-06-05T00:12:35;17.90;99.90
28460;DHT22;32528;45.712;9.192;2023-06-05T00:14:36;17.90;99.90
28460;DHT22;32528;45.712;9.192;2023-06-05T00:16:37;18.00;99.90
28460;DHT22;32528;45.712;9.192;2023-06-05T00:18:38;17.90;99.90
28460;DHT22;32528;45.712;9.192;2023-06-05T00:20:38;18.00;99.90
28460;DHT22;32528;45.712;9.192;2023-06-05T00:22:39;17.90;99.90
28460;DHT22;32528;45.712;9.192;2023-06-05T00:24:40;17.90;99.90
28460;DHT22;32528;45.712;9.192;2023-06-05T00:26:40;18.00;99.90
28460;DHT22;32528;45.712;9.192;2023-06-05T00:28:41;18.00;99.90
28460;DHT22;32528;45.712;9.192;2023-06-05T00:30:41;18.00;99.90
28460;DHT22;32528;45.712;9.192;2023-06-05T00:32:42;18.00;99.90
28460;DHT22;32528;45.712;9.192;2023-06-05T00:34:43;18.00;99.90
28460;DHT22;32528;45.712;9.192;2023-06-05T00:36:43;17.90;99.90
28460;DHT22;32528;45.712;9.192;2023-06-05T00:38:44;17.90;99.90
28460;DHT22;32528;45.712;9.192;2023-06-05T00:40:45;17.90;99.90
28460;DHT22;32528;45.712;9.192;2023-06-05T00:42:46;17.90;99.90
28460;DHT22;32528;45.712;9.192;2023-06-05T00:44:46;17.90;99.90
28460;DHT22;32528;45.712;9.192;2023-06-05T00:46:49;17.90;99.90
28460;DHT22;32528;45.712;9.192;2023-06-05T00:48:50;17.90;99.90
28460;DHT22;32528;45.712;9.192;2023-06-05T00:50:51;17.90;99.90
28460;DHT22;32528;45.712;9.192;2023-06-05T00:52:51;18.00;99.90
28460;DHT22;32528;45.712;9.192;2023-06-05T00:54:54;17.90;99.90
28460;DHT22;32528;45.712;9.192;2023-06-05T00:56:54;17.90;99.90
28460;DHT22;32528;45.712;9.192;2023-06-05T00:58:56;17.90;99.90
28460;DHT22;32528;45.712;9.192;2023-06-05T01:00:58;17.90;99.90
28460;DHT22;32528;45.712;9.192;2023-06-05T01:03:01;17.90;99.90
28460;DHT22;32528;45.712;9.192;2023-06-05T01:05:02;17.90;99.90
28460;DHT22;32528;45.712;9.192;2023-06-05T01:07:04;17.90;99.90
28460;DHT22;32528;45.712;9.192;2023-06-05T01:09:06;17.90;99.90
28460;DHT22;32528;45.712;9.192;2023-06-05T01:11:11;18.00;99.90
28460;DHT22;32528;45.712;9.192;2023-06-05T01:13:23;17.90;99.90
28460;DHT22;32528;45.712;9.192;2023-06-05T01:15:25;17.90;99.90
28460;DHT22;32528;45.712;9.192;2023-06-05T01:17:31;18.00;99.90
28460;DHT22;32528;45.712;9.192;2023-06-05T01:19:36;17.90;99.90
28460;DHT22;32528;45.712;9.192;2023-06-05T01:21:39;17.80;99.90
28460;DHT22;32528;45.712;9.192;2023-06-05T01:23:43;17.80;99.90
28460;DHT22;32528;45.712;9.192;2023-06-05T01:25:45;17.70;99.90
28460;DHT22;32528;45.712;9.192;2023-06-05T01:27:49;17.70;99.90
28460;DHT22;32528;45.712;9.192;2023-06-05T01:31:55;17.70;99.90
28460;DHT22;32528;45.712;9.192;2023-06-05T01:34:00;17.60;99.90
28460;DHT22;32528;45.712;9.192;2023-06-05T01:36:02;17.60;99.90
28460;DHT22;32528;45.712;9.192;2023-06-05T01:38:05;17.60;99.90
28460;DHT22;32528;45.712;9.192;2023-06-05T01:40:07;17.60;99.90
28460;DHT22;32528;45.712;9.192;2023-06-05T01:42:11;17.60;99.90
28460;DHT22;32528;45.712;9.192;2023-06-05T01:44:13;17.60;99.90
28460;DHT22;32528;45.712;9.192;2023-06-05T01:46:17;17.60;99.90
28460;DHT22;32528;45.712;9.192;2023-06-05T01:48:18;17.60;99.90
28460;DHT22;32528;45.712;9.192;2023-06-05T01:50:19;17.60;99.90
28460;DHT22;32528;45.712;9.192;2023-06-05T01:52:19;17.60;99.90
28460;DHT22;32528;45.712;9.192;2023-06-05T01:54:20;17.60;99.90
28460;DHT22;32528;45.712;9.192;2023-06-05T01:56:23;17.60;99.90
28460;DHT22;32528;45.712;9.192;2023-06-05T01:58:25;17.60;99.90
28460;DHT22;32528;45.712;9.192;2023-06-05T02:00:26;17.50;99.90
28460;DHT22;32528;45.712;9.192;2023-06-05T02:02:27;17.60;99.90
28460;DHT22;32528;45.712;9.192;2023-06-05T02:04:30;17.50;99.90
28460;DHT22;32528;45.712;9.192;2023-06-05T02:06:32;17.50;99.90
28460;DHT22;32528;45.712;9.192;2023-06-05T02:08:33;17.50;99.90
28460;DHT22;32528;45.712;9.192;2023-06-05T02:10:36;17.50;99.90
28460;DHT22;32528;45.712;9.192;2023-06-05T02:12:37;17.50;99.90
28460;DHT22;32528;45.712;9.192;2023-06-05T02:14:38;17.60;99.90
28460;DHT22;32528;45.712;9.192;2023-06-05T02:16:39;17.60;99.90
28460;DHT22;32528;45.712;9.192;2023-06-05T02:18:40;17.60;99.90
28460;DHT22;32528;45.712;9.192;2023-06-05T02:20:41;17.50;99.90
28460;DHT22;32528;45.712;9.192;2023-06-05T02:22:44;17.50;99.90
28460;DHT22;32528;45.712;9.192;2023-06-05T02:24:45;17.50;99.90
28460;DHT22;32528;45.712;9.192;2023-06-05T02:26:46;17.60;99.90
28460;DHT22;32528;45.712;9.192;2023-06-05T02:28:46;17.50;99.90
28460;DHT22;32528;45.712;9.192;2023-06-05T02:30:47;17.50;99.90
28460;DHT22;32528;45.712;9.192;2023-06-05T02:32:49;17.40;99.90
28460;DHT22;32528;45.712;9.192;2023-06-05T02:34:58;17.40;99.90
28460;DHT22;32528;45.712;9.192;2023-06-05T02:36:59;17.40;99.90
28460;DHT22;32528;45.712;9.192;2023-06-05T02:38:59;17.40;99.90
28460;DHT22;32528;45.712;9.192;2023-06-05T02:41:00;17.40;99.90
28460;DHT22;32528;45.712;9.192;2023-06-05T02:43:02;17.30;99.90
28460;DHT22;32528;45.712;9.192;2023-06-05T02:45:06;17.30;99.90
28460;DHT22;32528;45.712;9.192;2023-06-05T02:47:08;17.30;99.90
28460;DHT22;32528;45.712;9.192;2023-06-05T02:49:08;17.40;99.90
28460;DHT22;32528;45.712;9.192;2023-06-05T02:51:09;17.40;99.90
28460;DHT22;32528;45.712;9.192;2023-06-05T02:53:12;17.40;99.90
28460;DHT22;32528;45.712;9.192;2023-06-05T02:55:13;17.30;99.90
28460;DHT22;32528;45.712;9.192;2023-06-05T02:57:15;17.30;99.90
28460;DHT22;32528;45.712;9.192;2023-06-05T02:59:18;17.30;99.90
28460;DHT22;32528;45.712;9.192;2023-06-05T03:01:19;17.30;99.90
28460;DHT22;32528;45.712;9.192;2023-06-05T03:03:22;17.30;99.90
28460;DHT22;32528;45.712;9.192;2023-06-05T03:05:26;17.20;99.90
28460;DHT22;32528;45.712;9.192;2023-06-05T03:07:32;17.20;99.90
28460;DHT22;32528;45.712;9.192;2023-06-05T03:09:36;17.20;99.90
28460;DHT22;32528;45.712;9.192;2023-06-05T03:11:37;17.20;99.90
28460;DHT22;32528;45.712;9.192;2023-06-05T03:13:38;17.20;99.90
28460;DHT22;32528;45.712;9.192;2023-06-05T03:15:38;17.20;99.90
28460;DHT22;32528;45.712;9.192;2023-06-05T03:17:42;17.20;99.90
28460;DHT22;32528;45.712;9.192;2023-06-05T03:19:43;17.20;99.90
28460;DHT22;32528;45.712;9.192;2023-06-05T03:21:43;17.20;99.90
28460;DHT22;32528;45.712;9.192;2023-06-05T03:23:45;17.10;99.90
28460;DHT22;32528;45.712;9.192;2023-06-05T03:25:48;17.10;99.90
28460;DHT22;32528;45.712;9.192;2023-06-05T03:27:49;17.00;99.90
28460;DHT22;32528;45.712;9.192;2023-06-05T03:29:51;17.00;99.90
28460;DHT22;32528;45.712;9.192;2023-06-05T03:31:52;17.00;99.90
28460;DHT22;32528;45.712;9.192;2023-06-05T03:33:53;17.00;99.90
28460;DHT22;32528;45.712;9.192;2023-06-05T03:35:54;17.00;99.90
28460;DHT22;32528;45.712;9.192;2023-06-05T03:37:58;17.00;99.90
28460;DHT22;32528;45.712;9.192;2023-06-05T03:39:59;17.00;99.90
28460;DHT22;32528;45.712;9.192;2023-06-05T03:41:59;16.90;99.90
28460;DHT22;32528;45.712;9.192;2023-06-05T03:44:04;16.90;99.90
28460;DHT22;32528;45.712;9.192;2023-06-05T03:46:07;16.90;99.90
28460;DHT22;32528;45.712;9.192;2023-06-05T03:48:08;16.90;99.90
28460;DHT22;32528;45.712;9.192;2023-06-05T03:50:15;16.90;99.90
28460;DHT22;32528;45.712;9.192;2023-06-05T03:52:18;16.90;99.90
28460;DHT22;32528;45.712;9.192;2023-06-05T03:54:23;16.90;99.90
28460;DHT22;32528;45.712;9.192;2023-06-05T03:56:26;16.90;99.90
28460;DHT22;32528;45.712;9.192;2023-06-05T03:58:35;16.90;99.90
28460;DHT22;32528;45.712;9.192;2023-06-05T04:00:37;16.90;99.90
28460;DHT22;32528;45.712;9.192;2023-06-05T04:02:38;16.90;99.90
28460;DHT22;32528;45.712;9.192;2023-06-05T04:04:38;16.90;99.90
28460;DHT22;32528;45.712;9.192;2023-06-05T04:06:39;16.90;99.90
28460;DHT22;32528;45.712;9.192;2023-06-05T04:08:41;17.00;99.90
28460;DHT22;32528;45.712;9.192;2023-06-05T04:10:42;17.00;99.90
28460;DHT22;32528;45.712;9.192;2023-06-05T04:12:43;16.90;99.90
28460;DHT22;32528;45.712;9.192;2023-06-05T04:14:43;17.00;99.90
28460;DHT22;32528;45.712;9.192;2023-06-05T04:16:46;17.00;99.90
28460;DHT22;32528;45.712;9.192;2023-06-05T04:18:52;17.10;99.90
28460;DHT22;32528;45.712;9.192;2023-06-05T04:20:53;17.10;99.90
28460;DHT22;32528;45.712;9.192;2023-06-05T04:22:54;17.20;99.90
28460;DHT22;32528;45.712;9.192;2023-06-05T04:24:56;17.30;99.90
28460;DHT22;32528;45.712;9.192;2023-06-05T04:26:57;17.30;99.90
28460;DHT22;32528;45.712;9.192;2023-06-05T04:28:59;17.40;99.90
28460;DHT22;32528;45.712;9.192;2023-06-05T04:31:00;17.40;99.90
28460;DHT22;32528;45.712;9.192;2023-06-05T04:33:02;17.50;99.90
28460;DHT22;32528;45.712;9.192;2023-06-05T04:35:06;17.50;99.90
28460;DHT22;32528;45.712;9.192;2023-06-05T04:37:07;17.50;99.90
28460;DHT22;32528;45.712;9.192;2023-06-05T04:39:07;17.50;99.90
28460;DHT22;32528;45.712;9.192;2023-06-05T04:41:15;17.50;99.90
28460;DHT22;32528;45.712;9.192;2023-06-05T04:43:16;17.50;99.90
28460;DHT22;32528;45.712;9.192;2023-06-05T04:45:17;17.60;99.90
28460;DHT22;32528;45.712;9.192;2023-06-05T04:47:21;17.60;99.90
28460;DHT22;32528;45.712;9.192;2023-06-05T04:49:22;17.60;99.90
28460;DHT22;32528;45.712;9.192;2023-06-05T04:51:23;17.70;99.90
28460;DHT22;32528;45.712;9.192;2023-06-05T04:53:24;17.70;99.90
28460;DHT22;32528;45.712;9.192;2023-06-05T04:55:25;17.80;99.90
28460;DHT22;32528;45.712;9.192;2023-06-05T04:57:28;17.80;99.90
28460;DHT22;32528;45.712;9.192;2023-06-05T04:59:30;17.80;99.90
28460;DHT22;32528;45.712;9.192;2023-06-05T05:01:33;17.90;99.90
28460;DHT22;32528;45.712;9.192;2023-06-05T05:03:34;18.00;99.90
28460;DHT22;32528;45.712;9.192;2023-06-05T05:05:54;18.00;99.90
28460;DHT22;32528;45.712;9.192;2023-06-05T05:07:54;18.10;99.90
28460;DHT22;32528;45.712;9.192;2023-06-05T05:09:56;18.00;99.90
28460;DHT22;32528;45.712;9.192;2023-06-05T05:11:57;18.10;99.90
28460;DHT22;32528;45.712;9.192;2023-06-05T05:13:58;18.10;99.90
28460;DHT22;32528;45.712;9.192;2023-06-05T05:15:58;18.10;99.90
28460;DHT22;32528;45.712;9.192;2023-06-05T05:18:00;18.10;99.90
28460;DHT22;32528;45.712;9.192;2023-06-05T05:20:04;18.20;99.90
28460;DHT22;32528;45.712;9.192;2023-06-05T05:22:07;18.30;99.90
28460;DHT22;32528;45.712;9.192;2023-06-05T05:24:08;18.40;99.90
28460;DHT22;32528;45.712;9.192;2023-06-05T05:26:09;18.40;99.90
28460;DHT22;32528;45.712;9.192;2023-06-05T05:28:10;18.50;99.90
28460;DHT22;32528;45.712;9.192;2023-06-05T05:30:11;18.70;99.90
28460;DHT22;32528;45.712;9.192;2023-06-05T05:32:12;19.40;99.90
28460;DHT22;32528;45.712;9.192;2023-06-05T05:34:14;19.90;99.90
28460;DHT22;32528;45.712;9.192;2023-06-05T05:36:15;20.30;99.90
28460;DHT22;32528;45.712;9.192;2023-06-05T05:38:16;20.60;99.90
28460;DHT22;32528;45.712;9.192;2023-06-05T05:40:17;20.40;99.90
28460;DHT22;32528;45.712;9.192;2023-06-05T05:42:18;20.20;99.90
28460;DHT22;32528;45.712;9.192;2023-06-05T05:44:19;19.90;99.90
28460;DHT22;32528;45.712;9.192;2023-06-05T05:46:20;19.80;99.90
28460;DHT22;32528;45.712;9.192;2023-06-05T05:48:20;19.60;99.90
28460;DHT22;32528;45.712;9.192;2023-06-05T05:50:24;19.50;99.90
28460;DHT22;32528;45.712;9.192;2023-06-05T05:52:24;19.50;99.90
28460;DHT22;32528;45.712;9.192;2023-06-05T05:54:25;19.50;99.90
28460;DHT22;32528;45.712;9.192;2023-06-05T05:56:27;19.50;99.90
28460;DHT22;32528;45.712;9.192;2023-06-05T05:58:29;19.40;99.90
28460;DHT22;32528;45.712;9.192;2023-06-05T06:00:30;19.40;99.90
28460;DHT22;32528;45.712;9.192;2023-06-05T06:02:30;19.40;99.90
28460;DHT22;32528;45.712;9.192;2023-06-05T06:04:32;19.30;99.90
28460;DHT22;32528;45.712;9.192;2023-06-05T06:06:33;19.40;99.90
28460;DHT22;32528;45.712;9.192;2023-06-05T06:08:34;19.40;99.90
28460;DHT22;32528;45.712;9.192;2023-06-05T06:10:38;19.40;99.90
28460;DHT22;32528;45.712;9.192;2023-06-05T06:12:39;19.40;99.90
28460;DHT22;32528;45.712;9.192;2023-06-05T06:14:39;19.50;99.90
28460;DHT22;32528;45.712;9.192;2023-06-05T06:16:40;19.50;99.90
28460;DHT22;32528;45.712;9.192;2023-06-05T06:18:42;19.60;99.90
28460;DHT22;32528;45.712;9.192;2023-06-05T06:20:42;19.60;99.90
28460;DHT22;32528;45.712;9.192;2023-06-05T06:22:43;19.70;99.90
28460;DHT22;32528;45.712;9.192;2023-06-05T06:24:44;19.80;99.90
28460;DHT22;32528;45.712;9.192;2023-06-05T06:26:45;19.80;99.90
28460;DHT22;32528;45.712;9.192;2023-06-05T06:28:46;19.80;99.90
28460;DHT22;32528;45.712;9.192;2023-06-05T06:30:47;19.80;99.90
28460;DHT22;32528;45.712;9.192;2023-06-05T06:32:49;19.90;99.90
28460;DHT22;32528;45.712;9.192;2023-06-05T06:34:50;19.80;99.90
28460;DHT22;32528;45.712;9.192;2023-06-05T06:36:50;19.80;99.90
28460;DHT22;32528;45.712;9.192;2023-06-05T06:38:51;19.80;99.90
28460;DHT22;32528;45.712;9.192;2023-06-05T06:40:52;19.80;99.90
28460;DHT22;32528;45.712;9.192;2023-06-05T06:42:53;19.90;99.90
28460;DHT22;32528;45.712;9.192;2023-06-05T06:45:07;19.90;99.90
28460;DHT22;32528;45.712;9.192;2023-06-05T06:47:09;19.90;99.90
28460;DHT22;32528;45.712;9.192;2023-06-05T06:49:11;20.00;99.90
28460;DHT22;32528;45.712;9.192;2023-06-05T06:51:12;20.10;99.90
28460;DHT22;32528;45.712;9.192;2023-06-05T06:53:12;20.10;99.90
28460;DHT22;32528;45.712;9.192;2023-06-05T06:55:13;20.20;99.90
28460;DHT22;32528;45.712;9.192;2023-06-05T06:57:13;20.30;99.90
28460;DHT22;32528;45.712;9.192;2023-06-05T06:59:14;20.20;99.90
28460;DHT22;32528;45.712;9.192;2023-06-05T07:01:15;20.30;99.90
28460;DHT22;32528;45.712;9.192;2023-06-05T07:03:16;20.20;99.90
28460;DHT22;32528;45.712;9.192;2023-06-05T07:05:16;20.30;99.90
28460;DHT22;32528;45.712;9.192;2023-06-05T07:07:20;20.30;99.90
28460;DHT22;32528;45.712;9.192;2023-06-05T07:09:21;20.40;99.90
28460;DHT22;32528;45.712;9.192;2023-06-05T07:11:22;20.30;99.90
28460;DHT22;32528;45.712;9.192;2023-06-05T07:13:22;20.30;99.90
28460;DHT22;32528;45.712;9.192;2023-06-05T07:15:23;20.40;99.90
28460;DHT22;32528;45.712;9.192;2023-06-05T07:17:24;20.40;99.90
28460;DHT22;32528;45.712;9.192;2023-06-05T07:19:28;20.40;99.90
28460;DHT22;32528;45.712;9.192;2023-06-05T07:21:29;20.40;99.90
28460;DHT22;32528;45.712;9.192;2023-06-05T07:23:29;20.50;99.90
28460;DHT22;32528;45.712;9.192;2023-06-05T07:25:30;20.60;99.90
28460;DHT22;32528;45.712;9.192;2023-06-05T07:27:31;20.70;99.90
28460;DHT22;32528;45.712;9.192;2023-06-05T07:29:31;20.90;99.90
28460;DHT22;32528;45.712;9.192;2023-06-05T07:31:33;21.00;99.90
28460;DHT22;32528;45.712;9.192;2023-06-05T07:33:34;21.00;99.90
28460;DHT22;32528;45.712;9.192;2023-06-05T07:35:34;21.10;99.90
28460;DHT22;32528;45.712;9.192;2023-06-05T07:37:35;21.20;99.90
28460;DHT22;32528;45.712;9.192;2023-06-05T07:39:36;21.30;99.90
28460;DHT22;32528;45.712;9.192;2023-06-05T07:41:37;21.40;99.90
28460;DHT22;32528;45.712;9.192;2023-06-05T07:43:39;21.50;99.90
28460;DHT22;32528;45.712;9.192;2023-06-05T07:45:42;21.50;99.90
28460;DHT22;32528;45.712;9.192;2023-06-05T07:47:43;21.40;99.90
28460;DHT22;32528;45.712;9.192;2023-06-05T07:49:43;21.40;99.90
28460;DHT22;32528;45.712;9.192;2023-06-05T07:51:45;21.40;99.90
28460;DHT22;32528;45.712;9.192;2023-06-05T07:53:48;21.40;99.90
28460;DHT22;32528;45.712;9.192;2023-06-05T07:55:48;21.50;99.90
28460;DHT22;32528;45.712;9.192;2023-06-05T07:57:49;21.60;99.90
28460;DHT22;32528;45.712;9.192;2023-06-05T07:59:53;21.60;99.90
28460;DHT22;32528;45.712;9.192;2023-06-05T08:01:55;21.60;99.90
28460;DHT22;32528;45.712;9.192;2023-06-05T08:04:01;21.60;99.90
28460;DHT22;32528;45.712;9.192;2023-06-05T08:06:02;21.50;99.90
28460;DHT22;32528;45.712;9.192;2023-06-05T08:08:03;21.60;99.90
28460;DHT22;32528;45.712;9.192;2023-06-05T08:10:04;21.70;99.90
28460;DHT22;32528;45.712;9.192;2023-06-05T08:12:05;21.70;99.90
28460;DHT22;32528;45.712;9.192;2023-06-05T08:14:06;21.90;99.90
28460;DHT22;32528;45.712;9.192;2023-06-05T08:16:08;22.10;99.90
28460;DHT22;32528;45.712;9.192;2023-06-05T08:18:08;22.20;99.90
28460;DHT22;32528;45.712;9.192;2023-06-05T08:20:09;22.20;99.90
28460;DHT22;32528;45.712;9.192;2023-06-05T08:22:11;22.40;99.90
28460;DHT22;32528;45.712;9.192;2023-06-05T08:24:12;22.40;99.90
28460;DHT22;32528;45.712;9.192;2023-06-05T08:26:13;22.30;99.90
28460;DHT22;32528;45.712;9.192;2023-06-05T08:28:16;22.10;99.90
28460;DHT22;32528;45.712;9.192;2023-06-05T08:30:17;22.10;99.90
28460;DHT22;32528;45.712;9.192;2023-06-05T08:32:18;22.00;99.90
28460;DHT22;32528;45.712;9.192;2023-06-05T08:34:21;22.00;99.90
28460;DHT22;32528;45.712;9.192;2023-06-05T08:36:21;22.00;99.90
28460;DHT22;32528;45.712;9.192;2023-06-05T08:38:24;22.00;99.90
28460;DHT22;32528;45.712;9.192;2023-06-05T08:40:27;22.20;99.90
28460;DHT22;32528;45.712;9.192;2023-06-05T08:42:28;22.20;99.90
28460;DHT22;32528;45.712;9.192;2023-06-05T08:44:30;22.20;99.90
28460;DHT22;32528;45.712;9.192;2023-06-05T08:46:31;22.40;99.90
28460;DHT22;32528;45.712;9.192;2023-06-05T08:48:46;22.50;99.90
28460;DHT22;32528;45.712;9.192;2023-06-05T08:50:47;22.50;99.90
28460;DHT22;32528;45.712;9.192;2023-06-05T08:52:48;22.50;99.90
28460;DHT22;32528;45.712;9.192;2023-06-05T08:54:50;22.60;99.90
28460;DHT22;32528;45.712;9.192;2023-06-05T08:56:51;22.90;99.90
28460;DHT22;32528;45.712;9.192;2023-06-05T08:58:51;23.10;99.90
28460;DHT22;32528;45.712;9.192;2023-06-05T09:00:54;23.20;99.90
28460;DHT22;32528;45.712;9.192;2023-06-05T09:02:55;23.20;99.90
28460;DHT22;32528;45.712;9.192;2023-06-05T09:04:56;23.40;99.90
28460;DHT22;32528;45.712;9.192;2023-06-05T09:06:57;23.60;99.90
28460;DHT22;32528;45.712;9.192;2023-06-05T09:08:59;23.80;99.90
28460;DHT22;32528;45.712;9.192;2023-06-05T09:13:20;23.80;99.90
28460;DHT22;32528;45.712;9.192;2023-06-05T09:15:26;23.80;99.90
28460;DHT22;32528;45.712;9.192;2023-06-05T09:17:27;23.90;99.90
28460;DHT22;32528;45.712;9.192;2023-06-05T09:19:40;23.90;99.90
28460;DHT22;32528;45.712;9.192;2023-06-05T09:21:51;23.90;99.90
28460;DHT22;32528;45.712;9.192;2023-06-05T09:23:52;24.10;99.90
28460;DHT22;32528;45.712;9.192;2023-06-05T09:25:55;24.10;99.90
28460;DHT22;32528;45.712;9.192;2023-06-05T09:28:04;24.00;99.90
28460;DHT22;32528;45.712;9.192;2023-06-05T09:30:05;23.80;99.90
28460;DHT22;32528;45.712;9.192;2023-06-05T09:32:08;23.70;99.90
28460;DHT22;32528;45.712;9.192;2023-06-05T09:34:09;23.90;99.90
28460;DHT22;32528;45.712;9.192;2023-06-05T09:36:11;24.10;99.90
28460;DHT22;32528;45.712;9.192;2023-06-05T09:38:24;24.30;99.90
28460;DHT22;32528;45.712;9.192;2023-06-05T09:40:38;24.40;99.90
28460;DHT22;32528;45.712;9.192;2023-06-05T09:42:39;24.60;99.90
28460;DHT22;32528;45.712;9.192;2023-06-05T09:44:39;24.70;99.90
28460;DHT22;32528;45.712;9.192;2023-06-05T09:46:53;24.60;99.90
28460;DHT22;32528;45.712;9.192;2023-06-05T09:48:57;24.40;99.90
28460;DHT22;32528;45.712;9.192;2023-06-05T09:51:07;24.50;99.90
28460;DHT22;32528;45.712;9.192;2023-06-05T09:53:08;24.60;99.90
28460;DHT22;32528;45.712;9.192;2023-06-05T09:55:09;24.50;99.90
28460;DHT22;32528;45.712;9.192;2023-06-05T09:57:10;24.50;99.90
28460;DHT22;32528;45.712;9.192;2023-06-05T09:59:11;24.60;99.90
28460;DHT22;32528;45.712;9.192;2023-06-05T10:01:14;24.60;99.90
28460;DHT22;32528;45.712;9.192;2023-06-05T10:03:17;24.40;99.90
28460;DHT22;32528;45.712;9.192;2023-06-05T10:05:17;24.40;99.90
28460;DHT22;32528;45.712;9.192;2023-06-05T10:07:20;24.30;99.90
28460;DHT22;32528;45.712;9.192;2023-06-05T10:09:21;24.60;99.90
28460;DHT22;32528;45.712;9.192;2023-06-05T10:11:22;24.70;99.10
28460;DHT22;32528;45.712;9.192;2023-06-05T10:13:23;25.00;98.20
28460;DHT22;32528;45.712;9.192;2023-06-05T10:15:25;25.20;97.90
28460;DHT22;32528;45.712;9.192;2023-06-05T10:17:27;25.30;97.90
28460;DHT22;32528;45.712;9.192;2023-06-05T10:19:30;25.30;97.40
28460;DHT22;32528;45.712;9.192;2023-06-05T10:21:31;25.50;97.90
28460;DHT22;32528;45.712;9.192;2023-06-05T10:23:33;25.70;97.10
28460;DHT22;32528;45.712;9.192;2023-06-05T10:25:34;25.90;97.00
28460;DHT22;32528;45.712;9.192;2023-06-05T10:27:39;25.90;97.00
28460;DHT22;32528;45.712;9.192;2023-06-05T10:32:03;25.70;96.10
28460;DHT22;32528;45.712;9.192;2023-06-05T10:34:13;25.60;96.60
28460;DHT22;32528;45.712;9.192;2023-06-05T10:36:24;25.70;96.10
28460;DHT22;32528;45.712;9.192;2023-06-05T10:38:26;25.80;95.80
28460;DHT22;32528;45.712;9.192;2023-06-05T10:40:28;26.00;96.00
28460;DHT22;32528;45.712;9.192;2023-06-05T10:42:29;26.10;96.40
28460;DHT22;32528;45.712;9.192;2023-06-05T10:44:43;26.00;96.20
28460;DHT22;32528;45.712;9.192;2023-06-05T10:46:43;26.20;95.80
28460;DHT22;32528;45.712;9.192;2023-06-05T10:53:41;26.50;95.20
28460;DHT22;32528;45.712;9.192;2023-06-05T10:55:42;26.50;93.70
28460;DHT22;32528;45.712;9.192;2023-06-05T11:00:04;26.10;94.70
28460;DHT22;32528;45.712;9.192;2023-06-05T11:04:15;25.70;95.30
28460;DHT22;32528;45.712;9.192;2023-06-05T11:06:17;25.60;94.40
28460;DHT22;32528;45.712;9.192;2023-06-05T11:08:18;25.50;94.70
28460;DHT22;32528;45.712;9.192;2023-06-05T11:10:20;25.50;94.70
28460;DHT22;32528;45.712;9.192;2023-06-05T11:12:21;25.50;95.50
28460;DHT22;32528;45.712;9.192;2023-06-05T11:14:22;25.30;95.30
28460;DHT22;32528;45.712;9.192;2023-06-05T11:16:26;25.20;96.20
28460;DHT22;32528;45.712;9.192;2023-06-05T11:18:31;24.80;95.50
28460;DHT22;32528;45.712;9.192;2023-06-05T11:22:33;24.30;97.10
28460;DHT22;32528;45.712;9.192;2023-06-05T11:24:34;24.10;97.60
28460;DHT22;32528;45.712;9.192;2023-06-05T11:26:39;23.90;98.30
28460;DHT22;32528;45.712;9.192;2023-06-05T11:28:42;23.80;98.50
28460;DHT22;32528;45.712;9.192;2023-06-05T11:30:44;23.70;98.60
28460;DHT22;32528;45.712;9.192;2023-06-05T11:32:45;23.60;99.40
28460;DHT22;32528;45.712;9.192;2023-06-05T11:34:46;23.40;99.50
28460;DHT22;32528;45.712;9.192;2023-06-05T11:36:47;23.30;99.70
28460;DHT22;32528;45.712;9.192;2023-06-05T11:38:54;23.30;99.70
28460;DHT22;32528;45.712;9.192;2023-06-05T11:40:57;23.20;99.50
28460;DHT22;32528;45.712;9.192;2023-06-05T11:43:01;23.10;99.50
28460;DHT22;32528;45.712;9.192;2023-06-05T11:45:03;23.00;99.40
28460;DHT22;32528;45.712;9.192;2023-06-05T11:47:21;23.00;99.90
28460;DHT22;32528;45.712;9.192;2023-06-05T11:49:23;23.10;99.90
28460;DHT22;32528;45.712;9.192;2023-06-05T11:51:24;23.10;99.90
28460;DHT22;32528;45.712;9.192;2023-06-05T11:53:32;23.20;99.90
28460;DHT22;32528;45.712;9.192;2023-06-05T11:55:34;23.20;99.90
28460;DHT22;32528;45.712;9.192;2023-06-05T11:57:54;23.20;99.90
28460;DHT22;32528;45.712;9.192;2023-06-05T11:59:55;23.20;99.90
28460;DHT22;32528;45.712;9.192;2023-06-05T12:01:55;23.10;99.70
28460;DHT22;32528;45.712;9.192;2023-06-05T12:04:06;23.20;99.90
28460;DHT22;32528;45.712;9.192;2023-06-05T12:06:07;23.40;99.80
28460;DHT22;32528;45.712;9.192;2023-06-05T12:08:21;23.50;99.50
28460;DHT22;32528;45.712;9.192;2023-06-05T12:10:32;23.60;99.60
28460;DHT22;32528;45.712;9.192;2023-06-05T12:12:33;23.80;99.10
28460;DHT22;32528;45.712;9.192;2023-06-05T12:14:34;24.00;98.60
28460;DHT22;32528;45.712;9.192;2023-06-05T12:16:39;24.20;98.70
28460;DHT22;32528;45.712;9.192;2023-06-05T12:18:39;24.40;97.70
28460;DHT22;32528;45.712;9.192;2023-06-05T12:20:44;24.60;97.50
28460;DHT22;32528;45.712;9.192;2023-06-05T12:22:45;24.90;97.20
28460;DHT22;32528;45.712;9.192;2023-06-05T12:24:46;25.00;97.40
28460;DHT22;32528;45.712;9.192;2023-06-05T12:29:04;24.80;97.20
28460;DHT22;32528;45.712;9.192;2023-06-05T12:31:05;25.00;96.90
28460;DHT22;32528;45.712;9.192;2023-06-05T12:33:06;25.00;97.50
28460;DHT22;32528;45.712;9.192;2023-06-05T12:35:21;24.90;96.70
28460;DHT22;32528;45.712;9.192;2023-06-05T12:39:23;24.70;97.10
28460;DHT22;32528;45.712;9.192;2023-06-05T12:41:23;24.70;96.80
28460;DHT22;32528;45.712;9.192;2023-06-05T12:43:24;24.60;96.90
28460;DHT22;32528;45.712;9.192;2023-06-05T12:45:25;24.40;97.00
28460;DHT22;32528;45.712;9.192;2023-06-05T12:47:25;24.50;97.00
28460;DHT22;32528;45.712;9.192;2023-06-05T12:49:27;24.30;96.60
28460;DHT22;32528;45.712;9.192;2023-06-05T12:51:28;24.20;97.00
28460;DHT22;32528;45.712;9.192;2023-06-05T12:53:28;24.10;97.20
28460;DHT22;32528;45.712;9.192;2023-06-05T12:55:29;23.90;98.10
28460;DHT22;32528;45.712;9.192;2023-06-05T12:57:30;23.80;98.90
28460;DHT22;32528;45.712;9.192;2023-06-05T12:59:31;23.70;98.90
28460;DHT22;32528;45.712;9.192;2023-06-05T13:01:33;23.60;99.10
28460;DHT22;32528;45.712;9.192;2023-06-05T13:03:36;23.40;98.80
28460;DHT22;32528;45.712;9.192;2023-06-05T13:05:37;23.30;99.30
28460;DHT22;32528;45.712;9.192;2023-06-05T13:07:38;23.30;99.70
28460;DHT22;32528;45.712;9.192;2023-06-05T13:09:40;23.30;99.60
28460;DHT22;32528;45.712;9.192;2023-06-05T13:11:40;23.30;99.70
28460;DHT22;32528;45.712;9.192;2023-06-05T13:13:42;23.50;99.70